createdAt,value
2018-05-27T00:00:37.019Z,15.23
2018-05-27T00:01:39.534Z,16.05
2018-05-27T00:02:42.264Z,16.05
2018-05-27T00:03:44.794Z,16.12
2018-05-27T00:04:47.255Z,15.50
2018-05-27T00:05:49.727Z,16.55
2018-05-27T00:06:53.821Z,15.52
2018-05-27T00:07:56.342Z,15.35
2018-05-27T00:08:58.858Z,15.48
2018-05-27T00:10:01.354Z,16.70
2018-05-27T00:11:04.062Z,15.88
2018-05-27T00:12:06.561Z,16.35
2018-05-27T00:13:09.045Z,15.30
2018-05-27T00:14:11.557Z,15.45
2018-05-27T00:15:14.055Z,15.95
2018-05-27T00:16:16.543Z,17.30
2018-05-27T00:17:19.033Z,16.12
2018-05-27T00:18:21.523Z,15.82
2018-05-27T00:19:24.017Z,16.87
2018-05-27T00:20:26.507Z,15.70
2018-05-27T00:21:29.016Z,16.30
2018-05-27T00:22:31.491Z,15.30
2018-05-27T00:23:33.972Z,16.33
2018-05-27T00:24:36.487Z,16.15
2018-05-27T00:25:39.020Z,15.23
2018-05-27T00:26:41.563Z,16.20
2018-05-27T00:27:44.808Z,15.65
2018-05-27T00:28:48.081Z,15.48
2018-05-27T00:29:50.554Z,15.98
2018-05-27T00:30:53.071Z,15.48
2018-05-27T00:31:55.583Z,14.40
2018-05-27T00:32:58.065Z,15.45
2018-05-27T00:34:01.344Z,15.48
2018-05-27T00:35:03.879Z,15.20
2018-05-27T00:36:06.364Z,15.85
2018-05-27T00:37:09.601Z,16.10
2018-05-27T00:38:12.870Z,15.93
2018-05-27T00:39:15.360Z,15.10
2018-05-27T00:40:18.669Z,15.25
2018-05-27T00:41:21.201Z,15.13
2018-05-27T00:42:23.693Z,16.55
2018-05-27T00:43:26.157Z,15.95
2018-05-27T00:44:28.670Z,16.10
2018-05-27T00:45:31.258Z,16.05
2018-05-27T00:46:33.745Z,16.05
2018-05-27T00:47:36.213Z,16.35
2018-05-27T00:48:38.688Z,16.15
2018-05-27T00:49:41.182Z,14.75
2018-05-27T00:50:43.664Z,15.80
2018-05-27T00:51:46.965Z,14.90
2018-05-27T00:52:49.518Z,16.05
2018-05-27T00:53:59.763Z,15.18
2018-05-27T00:55:02.246Z,15.88
2018-05-27T00:56:04.717Z,16.12
2018-05-27T00:57:07.203Z,16.58
2018-05-27T00:58:09.689Z,16.25
2018-05-27T00:59:12.961Z,16.52
2018-05-27T01:00:15.427Z,15.90
2018-05-27T01:01:17.903Z,16.70
2018-05-27T01:02:20.391Z,16.58
2018-05-27T01:03:23.013Z,16.48
2018-05-27T01:04:25.511Z,15.50
2018-05-27T01:05:28.001Z,16.05
2018-05-27T01:06:30.510Z,16.33
2018-05-27T01:07:33.896Z,16.15
2018-05-27T01:08:37.192Z,17.10
2018-05-27T01:09:39.687Z,16.83
2018-05-27T01:10:42.203Z,16.10
2018-05-27T01:11:44.701Z,16.33
2018-05-27T01:12:47.197Z,16.50
2018-05-27T01:13:49.685Z,16.25
2018-05-27T01:14:52.995Z,16.40
2018-05-27T01:15:55.473Z,17.00
2018-05-27T01:16:57.974Z,17.52
2018-05-27T01:18:00.777Z,16.75
2018-05-27T01:19:03.279Z,16.20
2018-05-27T01:20:05.792Z,15.80
2018-05-27T01:21:08.283Z,17.20
2018-05-27T01:22:10.785Z,16.10
2018-05-27T01:23:13.285Z,15.40
2018-05-27T01:24:15.774Z,16.92
2018-05-27T01:25:18.329Z,15.68
2018-05-27T01:26:20.849Z,17.00
2018-05-27T01:27:23.350Z,16.35
2018-05-27T01:28:25.836Z,16.08
2018-05-27T01:29:28.328Z,16.60
2018-05-27T01:30:30.883Z,17.25
2018-05-27T01:31:33.365Z,16.73
2018-05-27T01:32:35.849Z,16.33
2018-05-27T01:33:39.096Z,17.70
2018-05-27T01:34:42.381Z,16.33
2018-05-27T01:35:44.898Z,16.87
2018-05-27T01:36:47.399Z,18.08
2018-05-27T01:37:51.561Z,16.83
2018-05-27T01:38:54.798Z,16.67
2018-05-27T01:39:58.057Z,17.05
2018-05-27T01:41:00.651Z,17.60
2018-05-27T01:42:03.903Z,17.20
2018-05-27T01:43:07.151Z,18.15
2018-05-27T01:44:10.524Z,17.20
2018-05-27T01:45:13.013Z,17.35
2018-05-27T01:46:16.258Z,18.15
2018-05-27T01:47:19.510Z,17.00
2018-05-27T01:48:22.780Z,17.40
2018-05-27T01:49:25.282Z,17.00
2018-05-27T01:50:28.547Z,18.08
2018-05-27T01:51:31.005Z,17.75
2018-05-27T01:52:33.468Z,18.48
2018-05-27T01:53:36.721Z,18.08
2018-05-27T01:54:39.223Z,18.48
2018-05-27T01:55:41.816Z,18.77
2018-05-27T01:56:44.321Z,18.10
2018-05-27T01:57:46.790Z,19.25
2018-05-27T01:58:49.285Z,17.60
2018-05-27T01:59:51.781Z,19.08
2018-05-27T02:00:54.298Z,19.08
2018-05-27T02:01:57.013Z,19.02
2018-05-27T02:03:00.278Z,18.85
2018-05-27T02:04:02.797Z,20.40
2018-05-27T02:05:06.059Z,19.33
2018-05-27T02:06:08.524Z,18.15
2018-05-27T02:07:11.014Z,19.60
2018-05-27T02:08:13.484Z,20.15
2018-05-27T02:09:15.946Z,20.52
2018-05-27T02:10:18.420Z,21.15
2018-05-27T02:11:20.937Z,19.73
2018-05-27T02:12:23.413Z,19.90
2018-05-27T02:13:26.654Z,21.10
2018-05-27T02:14:29.891Z,20.95
2018-05-27T02:15:33.239Z,22.27
2018-05-27T02:16:35.729Z,21.23
2018-05-27T02:17:38.193Z,22.60
2018-05-27T02:18:40.676Z,21.30
2018-05-27T02:19:43.929Z,22.50
2018-05-27T02:20:46.424Z,22.02
2018-05-27T02:21:48.918Z,22.55
2018-05-27T02:22:51.386Z,22.10
2018-05-27T02:23:54.543Z,21.23
2018-05-27T02:24:57.023Z,22.67
2018-05-27T02:25:59.522Z,22.73
2018-05-27T02:27:02.828Z,22.70
2018-05-27T02:28:05.312Z,21.92
2018-05-27T02:29:07.784Z,21.83
2018-05-27T02:30:10.265Z,22.48
2018-05-27T02:31:13.343Z,22.45
2018-05-27T02:32:15.804Z,22.37
2018-05-27T02:33:18.388Z,23.12
2018-05-27T02:34:20.850Z,22.37
2018-05-27T02:35:24.099Z,21.30
2018-05-27T02:36:26.590Z,21.90
2018-05-27T02:37:29.079Z,23.10
2018-05-27T02:38:31.559Z,21.27
2018-05-27T02:39:34.034Z,22.40
2018-05-27T02:40:36.521Z,22.65
2018-05-27T02:41:39.762Z,21.30
2018-05-27T02:42:43.029Z,22.00
2018-05-27T02:43:45.526Z,22.62
2018-05-27T02:44:48.780Z,22.90
2018-05-27T02:45:51.817Z,22.65
2018-05-27T02:46:54.320Z,23.73
2018-05-27T02:47:56.803Z,21.65
2018-05-27T02:48:59.305Z,22.90
2018-05-27T02:50:01.921Z,22.55
2018-05-27T02:51:04.377Z,22.85
2018-05-27T02:52:06.866Z,23.33
2018-05-27T02:53:10.105Z,22.55
2018-05-27T02:54:13.341Z,22.05
2018-05-27T02:55:16.560Z,24.00
2018-05-27T02:56:19.130Z,23.25
2018-05-27T02:57:21.629Z,23.30
2018-05-27T02:58:24.910Z,22.13
2018-05-27T02:59:27.390Z,23.08
2018-05-27T03:00:29.926Z,24.08
2018-05-27T03:01:33.157Z,23.30
2018-05-27T03:02:35.618Z,23.38
2018-05-27T03:03:38.115Z,23.67
2018-05-27T03:04:41.408Z,23.48
2018-05-27T03:05:43.914Z,22.87
2018-05-27T03:06:46.406Z,24.20
2018-05-27T03:07:48.953Z,22.52
2018-05-27T03:08:51.421Z,23.50
2018-05-27T03:09:53.915Z,23.15
2018-05-27T03:10:56.431Z,23.67
2018-05-27T03:11:58.934Z,22.60
2018-05-27T03:13:01.424Z,24.65
2018-05-27T03:14:03.894Z,25.08
2018-05-27T03:15:07.178Z,24.40
2018-05-27T03:16:09.687Z,24.08
2018-05-27T03:17:12.176Z,25.80
2018-05-27T03:18:15.420Z,25.42
2018-05-27T03:19:18.648Z,26.37
2018-05-27T03:20:21.138Z,24.77
2018-05-27T03:21:23.612Z,23.92
2018-05-27T03:22:26.855Z,25.77
2018-05-27T03:23:30.230Z,27.10
2018-05-27T03:24:32.721Z,25.67
2018-05-27T03:25:35.193Z,24.75
2018-05-27T03:26:37.684Z,25.77
2018-05-27T03:27:40.936Z,26.83
2018-05-27T03:28:43.446Z,25.95
2018-05-27T03:29:46.711Z,26.27
2018-05-27T03:30:49.169Z,25.75
2018-05-27T03:31:51.920Z,26.27
2018-05-27T03:32:54.407Z,26.67
2018-05-27T03:33:56.868Z,24.80
2018-05-27T03:34:59.350Z,26.00
2018-05-27T03:36:01.919Z,25.85
2018-05-27T03:37:04.416Z,26.20
2018-05-27T03:38:06.894Z,26.50
2018-05-27T03:39:10.131Z,25.90
2018-05-27T03:40:13.376Z,25.98
2018-05-27T03:41:16.697Z,25.95
2018-05-27T03:42:19.182Z,26.42
2018-05-27T03:43:21.869Z,25.98
2018-05-27T03:44:25.145Z,26.73
2018-05-27T03:45:27.711Z,24.48
2018-05-27T03:46:30.217Z,26.55
2018-05-27T03:47:33.010Z,26.00
2018-05-27T03:48:36.245Z,27.95
2018-05-27T03:49:39.483Z,26.25
2018-05-27T03:50:42.836Z,26.92
2018-05-27T03:51:46.090Z,25.92
2018-05-27T03:52:49.401Z,25.15
2018-05-27T03:53:52.692Z,26.52
2018-05-27T03:54:55.178Z,26.95
2018-05-27T03:55:58.507Z,25.92
2018-05-27T03:57:01.058Z,25.65
2018-05-27T03:58:04.288Z,25.58
2018-05-27T03:59:06.757Z,26.25
2018-05-27T04:00:09.225Z,26.87
2018-05-27T04:01:11.687Z,26.65
2018-05-27T04:02:14.958Z,27.02
2018-05-27T04:03:17.445Z,26.65
2018-05-27T04:04:32.709Z,25.88
2018-05-27T04:05:47.359Z,26.67
2018-05-27T04:07:02.744Z,26.12
2018-05-27T04:08:17.281Z,26.92
2018-05-27T04:09:19.749Z,26.65
2018-05-27T04:10:22.273Z,27.30
2018-05-27T04:11:24.776Z,26.85
2018-05-27T04:12:28.127Z,26.27
2018-05-27T04:13:30.609Z,25.60
2018-05-27T04:14:33.084Z,25.42
2018-05-27T04:15:35.596Z,25.77
2018-05-27T04:16:38.057Z,26.12
2018-05-27T04:17:40.551Z,25.42
2018-05-27T04:18:43.095Z,26.62
2018-05-27T04:19:45.576Z,25.83
2018-05-27T04:20:48.060Z,25.08
2018-05-27T04:21:50.556Z,24.40
2018-05-27T04:22:53.089Z,27.00
2018-05-27T04:23:55.610Z,24.70
2018-05-27T04:24:58.076Z,24.40
2018-05-27T04:26:00.691Z,24.87
2018-05-27T04:27:03.177Z,25.50
2018-05-27T04:28:05.732Z,25.33
2018-05-27T04:29:08.350Z,25.90
2018-05-27T04:30:11.333Z,23.90
2018-05-27T04:31:13.850Z,25.12
2018-05-27T04:32:17.163Z,23.62
2018-05-27T04:33:19.814Z,24.52
2018-05-27T04:34:22.316Z,24.83
2018-05-27T04:35:24.789Z,24.75
2018-05-27T04:36:27.255Z,24.50
2018-05-27T04:37:29.863Z,25.20
2018-05-27T04:38:33.116Z,24.35
2018-05-27T04:39:36.400Z,24.23
2018-05-27T04:40:38.918Z,25.20
2018-05-27T04:41:41.411Z,24.65
2018-05-27T04:42:43.908Z,24.85
2018-05-27T04:43:46.404Z,24.58
2018-05-27T04:44:49.658Z,25.98
2018-05-27T04:45:52.237Z,24.55
2018-05-27T04:46:54.804Z,24.87
2018-05-27T04:47:57.301Z,24.17
2018-05-27T04:48:59.807Z,23.30
2018-05-27T04:50:02.419Z,24.10
2018-05-27T04:51:05.660Z,24.37
2018-05-27T04:52:08.940Z,23.87
2018-05-27T04:53:11.426Z,24.23
2018-05-27T04:54:13.902Z,24.00
2018-05-27T04:55:16.481Z,23.80
2018-05-27T04:56:19.709Z,25.20
2018-05-27T04:57:22.187Z,24.92
2018-05-27T04:58:24.688Z,24.12
2018-05-27T04:59:27.199Z,24.20
2018-05-27T05:00:30.459Z,23.67
2018-05-27T05:01:32.943Z,24.33
2018-05-27T05:02:35.432Z,24.40
2018-05-27T05:03:37.907Z,24.65
2018-05-27T05:04:41.176Z,22.98
2018-05-27T05:05:43.674Z,24.30
2018-05-27T05:06:46.943Z,23.25
2018-05-27T05:07:49.469Z,22.75
2018-05-27T05:08:52.307Z,23.45
2018-05-27T05:09:55.002Z,23.12
2018-05-27T05:10:58.281Z,23.15
2018-05-27T05:12:00.763Z,22.15
2018-05-27T05:13:03.317Z,23.70
2018-05-27T05:14:05.789Z,23.60
2018-05-27T05:15:08.260Z,21.40
2018-05-27T05:16:10.739Z,22.30
2018-05-27T05:17:13.205Z,22.67
2018-05-27T05:18:15.682Z,22.62
2018-05-27T05:19:18.181Z,23.52
2018-05-27T05:20:20.657Z,22.00
2018-05-27T05:21:23.162Z,22.58
2018-05-27T05:22:25.656Z,22.98
2018-05-27T05:23:28.154Z,23.20
2018-05-27T05:24:31.436Z,22.30
2018-05-27T05:25:33.947Z,22.05
2018-05-27T05:26:37.062Z,21.17
2018-05-27T05:27:39.679Z,21.98
2018-05-27T05:28:42.191Z,21.10
2018-05-27T05:29:44.773Z,22.98
2018-05-27T05:30:47.249Z,21.92
2018-05-27T05:31:49.732Z,23.05
2018-05-27T05:32:52.224Z,23.35
2018-05-27T05:33:55.484Z,21.15
2018-05-27T05:34:57.971Z,21.37
2018-05-27T05:36:00.710Z,22.10
2018-05-27T05:37:03.173Z,21.05
2018-05-27T05:38:05.696Z,20.75
2018-05-27T05:39:08.188Z,21.02
2018-05-27T05:40:10.666Z,21.87
2018-05-27T05:41:13.150Z,21.90
2018-05-27T05:42:16.402Z,21.80
2018-05-27T05:43:18.887Z,19.95
2018-05-27T05:44:21.350Z,20.65
2018-05-27T05:45:24.596Z,21.50
2018-05-27T05:46:27.061Z,19.40
2018-05-27T05:47:29.581Z,21.42
2018-05-27T05:48:32.825Z,20.42
2018-05-27T05:49:35.297Z,20.20
2018-05-27T05:50:38.602Z,20.45
2018-05-27T05:51:41.068Z,19.25
2018-05-27T05:52:44.318Z,20.77
2018-05-27T05:53:47.576Z,19.30
2018-05-27T05:54:50.150Z,19.60
2018-05-27T05:55:52.821Z,19.70
2018-05-27T05:56:56.085Z,19.52
2018-05-27T05:57:58.660Z,19.58
2018-05-27T05:59:01.217Z,18.83
2018-05-27T06:00:04.471Z,20.00
2018-05-27T06:01:06.975Z,17.95
2018-05-27T06:02:09.515Z,18.67
2018-05-27T06:03:12.028Z,18.95
2018-05-27T06:04:15.299Z,17.85
2018-05-27T06:05:17.802Z,17.80
2018-05-27T06:06:21.033Z,19.02
2018-05-27T06:07:24.318Z,18.05
2018-05-27T06:08:26.795Z,17.08
2018-05-27T06:09:30.054Z,18.33
2018-05-27T06:10:33.296Z,24.30
2018-05-27T06:11:36.534Z,18.00
2018-05-27T06:12:39.789Z,17.30
2018-05-27T06:13:42.805Z,17.33
2018-05-27T06:14:46.054Z,17.00
2018-05-27T06:15:49.308Z,18.70
2018-05-27T06:16:51.923Z,17.73
2018-05-27T06:17:55.187Z,19.15
2018-05-27T06:18:57.678Z,16.80
2018-05-27T06:20:00.914Z,16.95
2018-05-27T06:21:03.411Z,17.25
2018-05-27T06:22:05.922Z,18.33
2018-05-27T06:23:08.427Z,17.20
2018-05-27T06:24:10.952Z,15.65
2018-05-27T06:25:13.429Z,15.57
2018-05-27T06:26:16.043Z,16.83
2018-05-27T06:27:18.512Z,17.00
2018-05-27T06:28:21.005Z,16.67
2018-05-27T06:29:23.498Z,16.50
2018-05-27T06:30:25.987Z,16.90
2018-05-27T06:31:29.235Z,15.87
2018-05-27T06:32:31.695Z,16.17
2018-05-27T06:33:34.196Z,17.07
2018-05-27T06:34:36.690Z,16.15
2018-05-27T06:35:39.156Z,15.77
2018-05-27T06:36:41.654Z,15.67
2018-05-27T06:37:44.905Z,17.07
2018-05-27T06:38:47.461Z,16.10
2018-05-27T06:39:50.796Z,15.43
2018-05-27T06:40:53.290Z,15.90
2018-05-27T06:41:56.540Z,14.20
2018-05-27T06:42:59.783Z,16.43
2018-05-27T06:44:02.297Z,16.13
2018-05-27T06:45:05.577Z,16.30
2018-05-27T06:46:08.065Z,15.17
2018-05-27T06:47:11.325Z,14.90
2018-05-27T06:48:13.808Z,15.63
2018-05-27T06:49:16.305Z,14.90
2018-05-27T06:50:18.795Z,15.05
2018-05-27T06:51:22.136Z,14.60
2018-05-27T06:52:25.385Z,14.37
2018-05-27T06:53:28.635Z,14.40
2018-05-27T06:54:31.125Z,15.33
2018-05-27T06:55:33.606Z,15.20
2018-05-27T06:56:36.086Z,14.80
2018-05-27T06:57:38.574Z,14.57
2018-05-27T06:58:41.047Z,14.47
2018-05-27T06:59:44.293Z,14.00
2018-05-27T07:00:46.821Z,14.40
2018-05-27T07:01:49.301Z,15.10
2018-05-27T07:02:51.785Z,13.80
2018-05-27T07:03:54.308Z,14.27
2018-05-27T07:04:56.965Z,15.07
2018-05-27T07:05:59.481Z,14.07
2018-05-27T07:07:01.961Z,13.43
2018-05-27T07:08:05.233Z,15.13
2018-05-27T07:09:07.771Z,14.47
2018-05-27T07:10:10.305Z,16.80
2018-05-27T07:11:12.778Z,14.07
2018-05-27T07:12:16.149Z,13.53
2018-05-27T07:13:18.671Z,14.00
2018-05-27T07:14:21.201Z,14.10
2018-05-27T07:15:23.767Z,13.73
2018-05-27T07:16:26.259Z,13.83
2018-05-27T07:17:28.757Z,13.50
2018-05-27T07:18:32.023Z,13.33
2018-05-27T07:19:34.552Z,13.60
2018-05-27T07:20:37.046Z,12.73
2018-05-27T07:21:40.296Z,13.23
2018-05-27T07:22:43.524Z,14.30
2018-05-27T07:23:46.878Z,14.20
2018-05-27T07:24:50.144Z,13.67
2018-05-27T07:25:52.675Z,12.97
2018-05-27T07:26:55.163Z,13.27
2018-05-27T07:27:57.627Z,13.10
2018-05-27T07:29:00.143Z,13.50
2018-05-27T07:30:02.711Z,13.10
2018-05-27T07:31:05.214Z,12.80
2018-05-27T07:32:07.682Z,15.07
2018-05-27T07:33:10.169Z,12.70
2018-05-27T07:34:12.676Z,13.00
2018-05-27T07:35:15.151Z,13.23
2018-05-27T07:36:17.609Z,12.23
2018-05-27T07:37:20.971Z,19.37
2018-05-27T07:38:23.443Z,16.27
2018-05-27T07:39:26.017Z,14.50
2018-05-27T07:40:28.507Z,11.40
2018-05-27T07:41:31.039Z,11.73
2018-05-27T07:42:34.273Z,11.83
2018-05-27T07:43:36.741Z,12.10
2018-05-27T07:44:39.245Z,11.00
2018-05-27T07:45:41.727Z,11.53
2018-05-27T07:46:45.005Z,11.10
2018-05-27T07:47:48.249Z,11.97
2018-05-27T07:48:51.681Z,11.63
2018-05-27T07:49:54.345Z,11.30
2018-05-27T07:50:58.744Z,11.57
2018-05-27T07:52:01.223Z,10.83
2018-05-27T07:53:04.485Z,10.50
2018-05-27T07:54:07.011Z,10.93
2018-05-27T07:55:09.591Z,9.80
2018-05-27T07:56:12.166Z,10.73
2018-05-27T07:57:14.684Z,11.20
2018-05-27T07:58:17.178Z,10.03
2018-05-27T07:59:20.511Z,10.77
2018-05-27T08:00:23.044Z,9.70
2018-05-27T08:01:25.525Z,10.67
2018-05-27T08:02:28.100Z,10.80
2018-05-27T08:03:30.643Z,10.50
2018-05-27T08:04:33.962Z,10.47
2018-05-27T08:05:36.480Z,10.93
2018-05-27T08:06:38.976Z,10.43
2018-05-27T08:07:41.986Z,10.97
2018-05-27T08:08:44.490Z,11.07
2018-05-27T08:09:47.806Z,11.23
2018-05-27T08:10:50.329Z,11.47
2018-05-27T08:11:52.949Z,10.27
2018-05-27T08:12:55.474Z,15.30
2018-05-27T08:13:58.005Z,10.10
2018-05-27T08:15:00.509Z,10.37
2018-05-27T08:16:03.015Z,10.13
2018-05-27T08:17:05.626Z,17.03
2018-05-27T08:18:08.870Z,13.93
2018-05-27T08:19:12.240Z,11.07
2018-05-27T08:20:14.731Z,13.60
2018-05-27T08:21:17.226Z,12.13
2018-05-27T08:22:19.715Z,9.23
2018-05-27T08:23:22.251Z,9.63
2018-05-27T08:24:24.712Z,10.10
2018-05-27T08:25:27.234Z,9.20
2018-05-27T08:26:29.710Z,9.30
2018-05-27T08:27:32.181Z,8.93
2018-05-27T08:28:34.682Z,13.70
2018-05-27T08:29:37.189Z,16.20
2018-05-27T08:30:39.701Z,13.40
2018-05-27T08:31:42.983Z,10.83
2018-05-27T08:32:45.474Z,11.33
2018-05-27T08:33:48.740Z,10.93
2018-05-27T08:34:51.261Z,9.30
2018-05-27T08:35:53.754Z,9.03
2018-05-27T08:36:56.251Z,9.87
2018-05-27T08:37:58.774Z,8.60
2018-05-27T08:39:01.266Z,11.70
2018-05-27T08:40:03.778Z,11.50
2018-05-27T08:41:06.237Z,9.13
2018-05-27T08:42:08.749Z,20.17
2018-05-27T08:43:11.234Z,9.37
2018-05-27T08:44:13.737Z,15.80
2018-05-27T08:45:16.273Z,8.43
2018-05-27T08:46:18.780Z,13.63
2018-05-27T08:47:22.666Z,8.53
2018-05-27T08:48:25.933Z,9.90
2018-05-27T08:49:28.405Z,8.87
2018-05-27T08:50:30.901Z,8.60
2018-05-27T08:51:33.445Z,8.60
2018-05-27T08:52:35.911Z,9.50
2018-05-27T08:53:39.159Z,9.50
2018-05-27T08:54:42.421Z,9.27
2018-05-27T08:55:45.667Z,9.30
2018-05-27T08:56:48.209Z,9.27
2018-05-27T08:57:50.770Z,9.37
2018-05-27T08:58:53.291Z,10.13
2018-05-27T08:59:56.406Z,10.20
2018-05-27T09:00:58.901Z,9.87
2018-05-27T09:02:01.444Z,9.53
2018-05-27T09:03:03.915Z,9.37
2018-05-27T09:04:07.244Z,10.10
2018-05-27T09:05:09.865Z,10.47
2018-05-27T09:06:12.602Z,10.20
2018-05-27T09:07:15.082Z,10.13
2018-05-27T09:08:17.876Z,9.90
2018-05-27T09:09:20.347Z,10.20
2018-05-27T09:10:22.888Z,9.50
2018-05-27T09:11:25.401Z,10.70
2018-05-27T09:12:27.919Z,10.63
2018-05-27T09:13:31.161Z,10.20
2018-05-27T09:14:33.682Z,12.43
2018-05-27T09:15:36.209Z,11.20
2018-05-27T09:16:38.741Z,11.40
2018-05-27T09:17:41.269Z,10.40
2018-05-27T09:18:43.825Z,11.17
2018-05-27T09:19:46.315Z,10.50
2018-05-27T09:20:48.842Z,11.77
2018-05-27T09:21:52.115Z,11.03
2018-05-27T09:22:54.624Z,10.90
2018-05-27T09:23:57.168Z,10.60
2018-05-27T09:24:59.663Z,11.20
2018-05-27T09:26:02.160Z,12.00
2018-05-27T09:27:05.398Z,10.13
2018-05-27T09:28:08.713Z,10.13
2018-05-27T09:29:11.185Z,10.00
2018-05-27T09:30:14.433Z,10.50
2018-05-27T09:31:16.938Z,11.20
2018-05-27T09:32:20.204Z,9.93
2018-05-27T09:33:22.750Z,10.43
2018-05-27T09:34:25.916Z,9.87
2018-05-27T09:35:28.763Z,9.83
2018-05-27T09:36:31.258Z,10.00
2018-05-27T09:37:33.736Z,9.70
2018-05-27T09:38:37.029Z,10.73
2018-05-27T09:39:39.505Z,10.07
2018-05-27T09:40:42.789Z,11.07
2018-05-27T09:41:45.256Z,9.43
2018-05-27T09:42:47.714Z,9.87
2018-05-27T09:43:50.271Z,9.90
2018-05-27T09:44:52.737Z,10.20
2018-05-27T09:45:55.251Z,10.10
2018-05-27T09:46:58.518Z,10.83
2018-05-27T09:48:01.790Z,10.47
2018-05-27T09:49:04.281Z,9.73
2018-05-27T09:50:08.265Z,9.80
2018-05-27T09:51:10.861Z,9.63
2018-05-27T09:52:14.124Z,9.80
2018-05-27T09:53:17.410Z,9.47
2018-05-27T09:54:19.910Z,9.80
2018-05-27T09:55:22.389Z,10.33
2018-05-27T09:56:24.920Z,10.53
2018-05-27T09:57:27.421Z,9.40
2018-05-27T09:58:29.910Z,9.50
2018-05-27T09:59:32.474Z,10.67
2018-05-27T10:00:34.991Z,10.00
2018-05-27T10:01:37.601Z,10.20
2018-05-27T10:02:40.237Z,9.80
2018-05-27T10:03:42.705Z,9.80
2018-05-27T10:04:46.739Z,10.30
2018-05-27T10:05:49.296Z,12.27
2018-05-27T10:06:52.658Z,10.60
2018-05-27T10:07:56.078Z,10.50
2018-05-27T10:08:58.557Z,10.40
2018-05-27T10:10:01.103Z,10.87
2018-05-27T10:11:03.613Z,10.23
2018-05-27T10:12:06.140Z,9.63
2018-05-27T10:13:08.604Z,12.90
2018-05-27T10:14:11.104Z,13.40
2018-05-27T10:15:13.661Z,10.40
2018-05-27T10:16:16.169Z,10.50
2018-05-27T10:17:18.640Z,10.40
2018-05-27T10:18:21.168Z,13.70
2018-05-27T10:19:23.806Z,9.93
2018-05-27T10:20:26.302Z,12.33
2018-05-27T10:21:29.585Z,11.17
2018-05-27T10:22:32.233Z,10.07
2018-05-27T10:23:34.724Z,11.67
2018-05-27T10:24:37.250Z,10.63
2018-05-27T10:25:39.729Z,11.50
2018-05-27T10:26:42.240Z,10.67
2018-05-27T10:27:44.734Z,10.73
2018-05-27T10:28:47.200Z,10.30
2018-05-27T10:29:49.811Z,11.57
2018-05-27T10:30:52.333Z,10.53
2018-05-27T10:31:54.853Z,10.17
2018-05-27T10:32:57.365Z,10.73
2018-05-27T10:33:59.835Z,10.80
2018-05-27T10:35:02.855Z,9.90
2018-05-27T10:36:05.345Z,10.40
2018-05-27T10:37:07.865Z,10.40
2018-05-27T10:38:10.366Z,11.03
2018-05-27T10:39:13.685Z,10.87
2018-05-27T10:40:16.271Z,11.73
2018-05-27T10:41:19.387Z,10.27
2018-05-27T10:42:22.750Z,10.00
2018-05-27T10:43:25.305Z,9.80
2018-05-27T10:44:27.785Z,10.97
2018-05-27T10:45:31.030Z,10.80
2018-05-27T10:46:33.551Z,11.30
2018-05-27T10:47:36.798Z,10.77
2018-05-27T10:48:40.044Z,10.30
2018-05-27T10:49:42.584Z,10.17
2018-05-27T10:50:45.098Z,10.60
2018-05-27T10:51:47.587Z,10.50
2018-05-27T10:52:50.211Z,9.87
2018-05-27T10:53:53.494Z,10.33
2018-05-27T10:54:55.981Z,10.83
2018-05-27T10:55:58.467Z,10.90
2018-05-27T10:57:00.993Z,10.83
2018-05-27T10:58:03.463Z,11.53
2018-05-27T10:59:05.970Z,10.37
2018-05-27T11:00:08.495Z,13.40
2018-05-27T11:01:11.011Z,9.77
2018-05-27T11:02:13.497Z,9.60
2018-05-27T11:03:16.002Z,9.70
2018-05-27T11:04:19.256Z,10.10
2018-05-27T11:05:22.505Z,10.33
2018-05-27T11:06:25.000Z,9.90
2018-05-27T11:07:27.484Z,10.27
2018-05-27T11:08:30.004Z,10.00
2018-05-27T11:09:32.482Z,10.27
2018-05-27T11:10:35.536Z,9.73
2018-05-27T11:11:38.797Z,10.00
2018-05-27T11:12:41.427Z,10.83
2018-05-27T11:13:43.944Z,11.07
2018-05-27T11:14:46.518Z,10.10
2018-05-27T11:15:49.042Z,9.97
2018-05-27T11:16:51.582Z,9.87
2018-05-27T11:17:54.083Z,10.00
2018-05-27T11:18:56.580Z,9.87
2018-05-27T11:19:59.828Z,9.40
2018-05-27T11:21:02.299Z,9.40
2018-05-27T11:22:04.833Z,10.00
2018-05-27T11:23:07.333Z,9.70
2018-05-27T11:24:09.812Z,11.00
2018-05-27T11:25:13.056Z,9.67
2018-05-27T11:26:16.343Z,9.33
2018-05-27T11:27:18.861Z,9.67
2018-05-27T11:28:21.332Z,11.93
2018-05-27T11:29:24.782Z,10.70
2018-05-27T11:30:28.149Z,8.67
2018-05-27T11:31:30.635Z,9.40
2018-05-27T11:32:33.120Z,9.97
2018-05-27T11:33:35.615Z,9.87
2018-05-27T11:34:39.669Z,8.97
2018-05-27T11:35:42.905Z,8.93
2018-05-27T11:36:46.165Z,9.20
2018-05-27T11:37:48.652Z,8.97
2018-05-27T11:38:51.120Z,8.57
2018-05-27T11:39:53.594Z,9.50
2018-05-27T11:40:56.066Z,9.30
2018-05-27T11:41:58.565Z,8.80
2018-05-27T11:43:01.230Z,11.03
2018-05-27T11:44:03.729Z,8.97
2018-05-27T11:45:06.948Z,9.10
2018-05-27T11:46:09.429Z,8.53
2018-05-27T11:47:11.924Z,9.27
2018-05-27T11:48:15.196Z,8.30
2018-05-27T11:49:17.792Z,9.00
2018-05-27T11:50:21.031Z,9.03
2018-05-27T11:51:24.290Z,9.33
2018-05-27T11:52:26.820Z,8.90
2018-05-27T11:53:30.072Z,9.03
2018-05-27T11:54:32.610Z,8.93
2018-05-27T11:55:35.108Z,8.83
2018-05-27T11:56:39.093Z,9.33
2018-05-27T11:57:41.603Z,8.77
2018-05-27T11:58:44.100Z,9.37
2018-05-27T11:59:47.500Z,9.40
2018-05-27T12:00:50.038Z,9.40
2018-05-27T12:01:52.542Z,11.67
2018-05-27T12:02:55.134Z,9.00
2018-05-27T12:03:58.379Z,8.40
2018-05-27T12:05:01.320Z,9.17
2018-05-27T12:06:03.826Z,8.80
2018-05-27T12:07:07.351Z,8.90
2018-05-27T12:08:09.849Z,9.03
2018-05-27T12:09:12.455Z,8.87
2018-05-27T12:10:14.977Z,9.03
2018-05-27T12:11:17.523Z,9.43
2018-05-27T12:12:20.088Z,10.07
2018-05-27T12:13:22.573Z,10.87
2018-05-27T12:14:25.059Z,6.30
2018-05-27T12:15:27.533Z,5.50
2018-05-27T12:16:30.003Z,5.80
2018-05-27T12:17:33.392Z,5.97
2018-05-27T12:18:35.880Z,6.70
2018-05-27T12:19:38.547Z,7.07
2018-05-27T12:20:41.013Z,6.80
2018-05-27T12:21:43.490Z,8.27
2018-05-27T12:22:46.021Z,10.80
2018-05-27T12:23:48.564Z,7.10
2018-05-27T12:24:51.041Z,6.90
2018-05-27T12:25:54.534Z,8.53
2018-05-27T12:26:57.005Z,7.57
2018-05-27T12:28:00.262Z,7.70
2018-05-27T12:29:03.872Z,6.70
2018-05-27T12:30:06.353Z,7.07
2018-05-27T12:31:08.832Z,7.00
2018-05-27T12:32:11.383Z,6.80
2018-05-27T12:33:15.058Z,7.00
2018-05-27T12:34:17.530Z,6.57
2018-05-27T12:35:20.023Z,8.57
2018-05-27T12:36:22.514Z,8.23
2018-05-27T12:37:25.784Z,7.43
2018-05-27T12:38:28.312Z,6.93
2018-05-27T12:39:30.794Z,7.13
2018-05-27T12:40:34.041Z,7.53
2018-05-27T12:41:37.278Z,8.60
2018-05-27T12:42:40.530Z,7.13
2018-05-27T12:43:43.785Z,7.50
2018-05-27T12:44:46.273Z,7.30
2018-05-27T12:45:48.759Z,9.27
2018-05-27T12:46:51.294Z,7.30
2018-05-27T12:47:54.074Z,7.40
2018-05-27T12:48:57.348Z,7.47
2018-05-27T12:49:59.871Z,6.93
2018-05-27T12:51:02.413Z,6.70
2018-05-27T12:52:04.903Z,7.80
2018-05-27T12:53:08.161Z,7.70
2018-05-27T12:54:10.628Z,7.77
2018-05-27T12:55:13.190Z,6.63
2018-05-27T12:56:16.451Z,7.00
2018-05-27T12:57:18.934Z,8.00
2018-05-27T12:58:21.412Z,6.20
2018-05-27T12:59:23.891Z,7.07
2018-05-27T13:00:26.353Z,6.63
2018-05-27T13:01:28.891Z,7.40
2018-05-27T13:02:31.400Z,6.67
2018-05-27T13:03:34.709Z,6.47
2018-05-27T13:04:37.198Z,7.03
2018-05-27T13:05:39.672Z,7.13
2018-05-27T13:06:43.108Z,7.23
2018-05-27T13:07:45.596Z,7.00
2018-05-27T13:08:48.063Z,6.80
2018-05-27T13:09:50.543Z,7.30
2018-05-27T13:10:53.083Z,6.97
2018-05-27T13:11:55.553Z,8.07
2018-05-27T13:12:58.828Z,7.20
2018-05-27T13:14:01.311Z,7.80
2018-05-27T13:15:04.582Z,9.43
2018-05-27T13:16:07.107Z,7.83
2018-05-27T13:17:09.573Z,8.90
2018-05-27T13:18:12.393Z,6.77
2018-05-27T13:19:14.863Z,7.83
2018-05-27T13:20:18.117Z,9.57
2018-05-27T13:21:21.496Z,9.37
2018-05-27T13:22:24.804Z,9.10
2018-05-27T13:23:28.054Z,9.77
2018-05-27T13:24:31.333Z,9.20
2018-05-27T13:25:33.820Z,8.50
2018-05-27T13:26:37.072Z,8.47
2018-05-27T13:27:39.549Z,8.90
2018-05-27T13:28:42.030Z,8.97
2018-05-27T13:29:44.496Z,8.77
2018-05-27T13:30:47.007Z,9.60
2018-05-27T13:31:49.599Z,8.93
2018-05-27T13:32:52.104Z,8.57
2018-05-27T13:33:55.395Z,8.53
2018-05-27T13:34:57.876Z,10.00